Time;durP1;ratioP1;P1;durP2;ratioP2;P2;SDS_P1;SDS_P2;PMS_P1;PMS_P2;Temp;Humidity;BMP_temperature;BMP_pressure;BME280_temperature;BME280_humidity;BME280_pressure;Samples;Min_cycle;Max_cycle;Signal;HPM_P1;HPM_P2
2023/02/19 00:02:21;;;;;;;;;;;;;;;-142.41;100.00;64449.00;5116546;28;19918;-69
2023/02/19 00:04:46;;;;;;;;;;;;;;;-142.41;100.00;64449.00;5136586;27;20274;-68
2023/02/19 00:07:11;;;;;;;;;;;;;;;-142.41;100.00;64449.00;5136610;27;19915;-69
2023/02/19 00:09:37;;;;;;;;;;;;;;;-142.41;100.00;64449.00;5137159;27;19912;-67
2023/02/19 00:12:02;;;;;;;;;;;;;;;-142.41;100.00;64449.00;5136686;27;20361;-70
2023/02/19 00:14:27;;;;;;;;;;;;;;;-142.41;100.00;64449.00;5136675;27;19916;-69
2023/02/19 00:16:53;;;;;;;;;;;;;;;-142.41;100.00;64449.00;5136696;27;20002;-69
2023/02/19 00:19:19;;;;;;;;;;;;;;;-142.41;100.00;64449.00;5136622;27;20022;-69
2023/02/19 00:21:45;;;;;;;;;;;;;;;-142.41;100.00;64449.00;5136582;27;20248;-69
2023/02/19 00:24:11;;;;;;;;;;;;;;;-142.41;100.00;64449.00;5136630;27;19919;-68
2023/02/19 00:26:38;;;;;;;;;;;;;;;-142.41;100.00;64449.00;5136583;27;19911;-71
2023/02/19 00:29:05;;;;;;;;;;;;;;;-142.41;100.00;64449.00;5136492;27;19926;-69
2023/02/19 00:31:32;;;;;;;;;;;;;;;-142.41;100.00;64449.00;5136115;27;20403;-69
2023/02/19 00:33:58;;;;;;;;;;;;;;;-142.41;100.00;64449.00;5136213;27;19956;-69
2023/02/19 00:36:24;;;;;;;;;;;;;;;-142.41;100.00;64449.00;5136103;27;19916;-70
2023/02/19 00:38:50;;;;;;;;;;;;;;;-142.41;100.00;64449.00;5136371;27;19934;-68
2023/02/19 00:41:19;;;;;;;;;;;;;;;-142.41;100.00;64449.00;5136196;27;19968;-69
2023/02/19 00:43:52;;;;;;;;;;;;;;;-142.41;100.00;64449.00;5136193;27;20018;-69
2023/02/19 00:46:22;;;;;;;;;;;;;;;-142.41;100.00;64449.00;5136154;27;19922;-68
2023/02/19 00:48:47;;;;;;;;;;;;;;;-142.41;100.00;64449.00;5136455;27;19911;-67
2023/02/19 00:51:13;;;;;;;;;;;;;;;-142.41;100.00;64449.00;5135995;27;20007;-68
2023/02/19 00:53:38;;;;;;;;;;;;;;;-142.41;100.00;64449.00;5136136;27;19911;-68
2023/02/19 00:56:05;;;;;;;;;;;;;;;-142.41;100.00;64449.00;5136034;27;19912;-69
2023/02/19 00:58:30;;;;;;;;;;;;;;;-142.41;100.00;64449.00;5136048;27;19964;-68
2023/02/19 01:00:56;;;;;;;;;;;;;;;-142.41;100.00;64449.00;5135895;27;19912;-69
2023/02/19 01:03:24;;;;;;;;;;;;;;;-142.41;100.00;64449.00;5135817;27;19912;-68
2023/02/19 01:05:49;;;;;;;;;;;;;;;-142.41;100.00;64449.00;5136116;27;19912;-68
2023/02/19 01:08:15;;;;;;;;;;;;;;;-142.41;100.00;64449.00;5135728;27;19926;-68
2023/02/19 01:10:40;;;;;;;;;;;;;;;-142.41;100.00;64449.00;5135610;27;19911;-68
2023/02/19 01:13:05;;;;;;;;;;;;;;;-142.41;100.00;64449.00;5132838;27;19911;-69
2023/02/19 01:15:31;;;;;;;;;;;;;;;-142.41;100.00;64449.00;5115067;28;19915;-68
2023/02/19 01:17:57;;;;;;;;;;;;;;;-142.41;100.00;64449.00;5115148;28;19912;-67
2023/02/19 01:20:22;;;;;;;;;;;;;;;-142.41;100.00;64449.00;5114702;28;20305;-68
2023/02/19 01:22:47;;;;;;;;;;;;;;;-142.41;100.00;64449.00;5114835;28;19916;-69
2023/02/19 01:25:13;;;;;;;;;;;;;;;-142.41;100.00;64449.00;5115096;28;19918;-68
2023/02/19 01:27:38;;;;;;;;;;;;;;;-142.41;100.00;64449.00;5114874;28;20255;-69
2023/02/19 01:30:06;;;;;;;;;;;;;;;-142.41;100.00;64449.00;5114801;28;20263;-69
2023/02/19 01:32:31;;;;;;;;;;;;;;;-142.41;100.00;64449.00;5114463;28;19915;-67
2023/02/19 01:34:57;;;;;;;;;;;;;;;-142.41;100.00;64449.00;5114719;28;19938;-69
2023/02/19 01:37:22;;;;;;;;;;;;;;;-142.41;100.00;64449.00;5114764;28;20378;-68
2023/02/19 01:39:47;;;;;;;;;;;;;;;-142.41;100.00;64449.00;5114655;28;19916;-68
2023/02/19 01:42:15;;;;;;;;;;;;;;;-142.41;100.00;64449.00;5114665;28;19964;-69
2023/02/19 01:44:44;;;;;;;;;;;;;;;-142.41;100.00;64449.00;5114509;28;19912;-69
2023/02/19 01:47:09;;;;;;;;;;;;;;;-142.41;100.00;64449.00;5079216;28;19911;-69
2023/02/19 01:49:38;;;;;;;;;;;;;;;-142.41;100.00;64449.00;5114569;28;19918;-69
2023/02/19 01:52:03;;;;;;;;;;;;;;;-142.41;100.00;64449.00;5114336;28;19912;-71
2023/02/19 01:54:31;;;;;;;;;;;;;;;-142.41;100.00;64449.00;5114552;28;19922;-71
2023/02/19 01:56:57;;;;;;;;;;;;;;;-142.41;100.00;64449.00;5114139;28;19911;-70
2023/02/19 01:59:23;;;;;;;;;;;;;;;-142.41;100.00;64449.00;5114288;28;19912;-69
2023/02/19 02:01:48;;;;;;;;;;;;;;;-142.41;100.00;64449.00;5114040;28;20002;-68
2023/02/19 02:04:14;;;;;;;;;;;;;;;-142.41;100.00;64449.00;5114232;28;19918;-67
2023/02/19 02:06:45;;;;;;;;;;;;;;;-142.41;100.00;64449.00;5113460;28;20355;-68
2023/02/19 02:11:55;;;;;;;;;;;;;;;-142.41;100.00;64449.00;5114005;28;19919;-69
2023/02/19 02:14:24;;;;;;;;;;;;;;;-142.41;100.00;64449.00;5113799;28;19912;-70
2023/02/19 02:17:09;;;;;;;;;;;;;;;-142.41;100.00;64449.00;5113811;28;19950;-68
2023/02/19 02:19:51;;;;;;;;;;;;;;;-142.41;100.00;64449.00;5114060;28;20008;-69
2023/02/19 02:22:16;;;;;;;;;;;;;;;-142.41;100.00;64449.00;5113726;28;19919;-70
2023/02/19 02:24:48;;;;;;;;;;;;;;;-142.41;100.00;64449.00;5113542;28;20271;-69
2023/02/19 02:27:19;;;;;;;;;;;;;;;-142.41;100.00;64449.00;5113418;28;20001;-68
2023/02/19 02:30:13;;;;;;;;;;;;;;;-142.41;100.00;64449.00;5113651;28;20011;-69
2023/02/19 02:32:52;;;;;;;;;;;;;;;-142.41;100.00;64449.00;5095656;28;19936;-70
2023/02/19 02:35:19;;;;;;;;;;;;;;;-142.41;100.00;64449.00;5113519;28;19937;-67
2023/02/19 02:37:45;;;;;;;;;;;;;;;-142.41;100.00;64449.00;5114033;28;20001;-67
2023/02/19 02:40:11;;;;;;;;;;;;;;;-142.41;100.00;64449.00;5113975;28;19919;-68
2023/02/19 02:42:38;;;;;;;;;;;;;;;-142.41;100.00;64449.00;5114136;28;20092;-69
2023/02/19 02:45:35;;;;;;;;;;;;;;;-142.41;100.00;64449.00;5113734;28;19912;-69
2023/02/19 02:48:19;;;;;;;;;;;;;;;-142.41;100.00;64449.00;5113797;28;19911;-69
2023/02/19 02:50:49;;;;;;;;;;;;;;;-142.41;100.00;64449.00;5113241;28;20418;-67
2023/02/19 02:56:03;;;;;;;;;;;;;;;-142.41;100.00;64449.00;5113199;28;19957;-68
2023/02/19 02:58:30;;;;;;;;;;;;;;;-142.41;100.00;64449.00;5114007;28;19915;-68
2023/02/19 03:03:44;;;;;;;;;;;;;;;-142.41;100.00;64449.00;5113197;28;19980;-67
2023/02/19 03:06:11;;;;;;;;;;;;;;;-142.41;100.00;64449.00;5112947;28;20274;-69
2023/02/19 03:08:36;;;;;;;;;;;;;;;-142.41;100.00;64449.00;5112963;28;19950;-67
2023/02/19 03:19:22;;;;;;;;;;;;;;;-142.41;100.00;64449.00;5113023;28;19930;-69
2023/02/19 03:21:58;;;;;;;;;;;;;;;-142.41;100.00;64449.00;5112932;28;19915;-67
2023/02/19 03:27:15;;;;;;;;;;;;;;;-142.41;100.00;64449.00;5112859;28;19916;-69
2023/02/19 03:29:42;;;;;;;;;;;;;;;-142.41;100.00;64449.00;5113052;28;19977;-67
2023/02/19 03:32:09;;;;;;;;;;;;;;;-142.41;100.00;64449.00;5112694;28;19911;-67
2023/02/19 03:34:37;;;;;;;;;;;;;;;-142.41;100.00;64449.00;5112807;28;19938;-68
2023/02/19 03:37:07;;;;;;;;;;;;;;;-142.41;100.00;64449.00;5112609;28;19916;-68
2023/02/19 03:39:43;;;;;;;;;;;;;;;-142.41;100.00;64449.00;5112692;28;19919;-67
2023/02/19 03:42:14;;;;;;;;;;;;;;;-142.41;100.00;64449.00;5112900;28;19973;-68
2023/02/19 03:44:44;;;;;;;;;;;;;;;-142.41;100.00;64449.00;5112702;28;20003;-68
2023/02/19 03:47:12;;;;;;;;;;;;;;;-142.41;100.00;64449.00;5112758;28;19998;-69
2023/02/19 03:49:37;;;;;;;;;;;;;;;-142.41;100.00;64449.00;5112658;28;19965;-68
2023/02/19 03:52:08;;;;;;;;;;;;;;;-142.41;100.00;64449.00;5112493;28;20279;-68
2023/02/19 03:54:37;;;;;;;;;;;;;;;-142.41;100.00;64449.00;5113953;28;20271;-66
2023/02/19 03:57:06;;;;;;;;;;;;;;;-142.41;100.00;64449.00;5112930;28;19925;-68
2023/02/19 03:59:40;;;;;;;;;;;;;;;-142.41;100.00;64449.00;5112553;28;20488;-68
2023/02/19 04:02:18;;;;;;;;;;;;;;;-142.41;100.00;64449.00;5112572;28;19935;-67
2023/02/19 04:04:49;;;;;;;;;;;;;;;-142.41;100.00;64449.00;5112451;28;19912;-68
2023/02/19 04:07:15;;;;;;;;;;;;;;;-142.41;100.00;64449.00;5112333;28;20014;-68
2023/02/19 04:09:43;;;;;;;;;;;;;;;-142.41;100.00;64449.00;5112209;28;20014;-70
2023/02/19 04:12:10;;;;;;;;;;;;;;;-142.41;100.00;64449.00;5112356;28;19916;-68
2023/02/19 04:14:42;;;;;;;;;;;;;;;-142.41;100.00;64449.00;5112417;28;20263;-68
2023/02/19 04:17:12;;;;;;;;;;;;;;;-142.41;100.00;64449.00;5112118;28;20072;-69
2023/02/19 04:19:38;;;;;;;;;;;;;;;-142.41;100.00;64449.00;5112330;28;19919;-68
2023/02/19 04:22:06;;;;;;;;;;;;;;;-142.41;100.00;64449.00;5112445;28;20006;-69
2023/02/19 04:24:35;;;;;;;;;;;;;;;-142.41;100.00;64449.00;5112302;28;19911;-70
2023/02/19 04:27:02;;;;;;;;;;;;;;;-142.41;100.00;64449.00;5112073;28;20042;-68
2023/02/19 04:29:27;;;;;;;;;;;;;;;-142.41;100.00;64449.00;5114164;28;19916;-67
2023/02/19 04:31:53;;;;;;;;;;;;;;;-142.41;100.00;64449.00;5115690;28;19923;-68
2023/02/19 04:34:18;;;;;;;;;;;;;;;-142.41;100.00;64449.00;5115670;28;20001;-69
2023/02/19 04:36:43;;;;;;;;;;;;;;;-142.41;100.00;64449.00;5115974;28;19916;-66
2023/02/19 04:39:09;;;;;;;;;;;;;;;-142.41;100.00;64449.00;5116012;28;20101;-66
2023/02/19 04:41:34;;;;;;;;;;;;;;;-142.41;100.00;64449.00;5115737;28;19919;-66
2023/02/19 04:43:59;;;;;;;;;;;;;;;-142.41;100.00;64449.00;5115733;28;20020;-66
2023/02/19 04:46:25;;;;;;;;;;;;;;;-142.41;100.00;64449.00;5115403;28;20010;-67
2023/02/19 04:48:51;;;;;;;;;;;;;;;-142.41;100.00;64449.00;5115823;28;20367;-68
2023/02/19 04:51:16;;;;;;;;;;;;;;;-142.41;100.00;64449.00;5115434;28;20405;-69
2023/02/19 04:53:41;;;;;;;;;;;;;;;-142.41;100.00;64449.00;5115488;28;19965;-67
2023/02/19 04:56:11;;;;;;;;;;;;;;;-142.41;100.00;64449.00;5115417;28;20007;-67
2023/02/19 04:58:37;;;;;;;;;;;;;;;-142.41;100.00;64449.00;5115509;28;19957;-70
2023/02/19 05:01:02;;;;;;;;;;;;;;;-142.41;100.00;64449.00;5115315;28;19912;-69
2023/02/19 05:03:28;;;;;;;;;;;;;;;-142.41;100.00;64449.00;5115452;28;19915;-67
2023/02/19 05:05:53;;;;;;;;;;;;;;;-142.41;100.00;64449.00;5115298;28;20265;-69
2023/02/19 05:08:19;;;;;;;;;;;;;;;-142.41;100.00;64449.00;5115706;28;19956;-68
2023/02/19 05:10:44;;;;;;;;;;;;;;;-142.41;100.00;64449.00;5115027;28;19911;-67
2023/02/19 05:13:09;;;;;;;;;;;;;;;-142.41;100.00;64449.00;5096752;28;19911;-68
2023/02/19 05:15:35;;;;;;;;;;;;;;;-142.41;100.00;64449.00;5114940;28;19912;-67
2023/02/19 05:18:00;;;;;;;;;;;;;;;-142.41;100.00;64449.00;5114983;28;19965;-65
2023/02/19 05:20:26;;;;;;;;;;;;;;;-142.41;100.00;64449.00;5114804;28;19965;-66
2023/02/19 05:22:51;;;;;;;;;;;;;;;-142.41;100.00;64449.00;5115055;28;19911;-67
2023/02/19 05:25:16;;;;;;;;;;;;;;;-142.41;100.00;64449.00;5114838;28;19912;-69
2023/02/19 05:27:42;;;;;;;;;;;;;;;-142.41;100.00;64449.00;5115035;28;19968;-68
2023/02/19 05:30:08;;;;;;;;;;;;;;;-142.41;100.00;64449.00;5114717;28;19920;-66
2023/02/19 05:32:33;;;;;;;;;;;;;;;-142.41;100.00;64449.00;5096841;28;19922;-68
2023/02/19 05:34:59;;;;;;;;;;;;;;;-142.41;100.00;64449.00;5114962;28;20366;-68
2023/02/19 05:37:24;;;;;;;;;;;;;;;-142.41;100.00;64449.00;5115159;28;19957;-68
2023/02/19 05:39:49;;;;;;;;;;;;;;;-142.41;100.00;64449.00;5114079;28;19919;-67
2023/02/19 05:42:15;;;;;;;;;;;;;;;-142.41;100.00;64449.00;5114330;28;19911;-66
2023/02/19 05:44:41;;;;;;;;;;;;;;;-142.41;100.00;64449.00;5114852;28;19934;-68
2023/02/19 05:47:08;;;;;;;;;;;;;;;-142.41;100.00;64449.00;5114833;28;20004;-68
2023/02/19 05:49:33;;;;;;;;;;;;;;;-142.41;100.00;64449.00;5115031;28;20366;-69
2023/02/19 05:51:58;;;;;;;;;;;;;;;-142.41;100.00;64449.00;5114880;28;20393;-68
2023/02/19 05:54:24;;;;;;;;;;;;;;;-142.41;100.00;64449.00;5115142;28;20297;-67
2023/02/19 05:56:49;;;;;;;;;;;;;;;-142.41;100.00;64449.00;5114606;28;20366;-71
2023/02/19 05:59:16;;;;;;;;;;;;;;;-142.41;100.00;64449.00;5114280;28;19912;-75
2023/02/19 06:01:41;;;;;;;;;;;;;;;-142.41;100.00;64449.00;5097527;28;19912;-66
2023/02/19 06:04:07;;;;;;;;;;;;;;;-142.41;100.00;64449.00;5116996;28;19912;-66
2023/02/19 06:06:33;;;;;;;;;;;;;;;-142.41;100.00;64449.00;5114467;28;20313;-70
2023/02/19 06:08:58;;;;;;;;;;;;;;;-142.41;100.00;64449.00;5115186;28;19919;-67
2023/02/19 06:11:23;;;;;;;;;;;;;;;-142.41;100.00;64449.00;5113623;28;19912;-67
2023/02/19 06:13:49;;;;;;;;;;;;;;;-142.41;100.00;64449.00;5114068;28;19912;-71
2023/02/19 06:16:16;;;;;;;;;;;;;;;-142.41;100.00;64449.00;5113634;28;20422;-66
2023/02/19 06:18:41;;;;;;;;;;;;;;;-142.41;100.00;64449.00;5113929;28;19912;-69
2023/02/19 06:21:08;;;;;;;;;;;;;;;-142.41;100.00;64449.00;5114069;28;19911;-72
2023/02/19 06:23:33;;;;;;;;;;;;;;;-142.41;100.00;64449.00;5113800;28;19912;-66
2023/02/19 06:26:05;;;;;;;;;;;;;;;-142.41;100.00;64449.00;5113871;28;19911;-70
2023/02/19 06:28:31;;;;;;;;;;;;;;;-142.41;100.00;64449.00;5114084;28;19928;-67
2023/02/19 06:30:59;;;;;;;;;;;;;;;-142.41;100.00;64449.00;5114746;28;19916;-76
2023/02/19 06:33:25;;;;;;;;;;;;;;;-142.41;100.00;64449.00;5096281;28;19968;-72
2023/02/19 06:35:50;;;;;;;;;;;;;;;-142.41;100.00;64449.00;5114257;28;20010;-68
2023/02/19 06:38:16;;;;;;;;;;;;;;;-142.41;100.00;64449.00;5124156;27;19949;-67
2023/02/19 06:40:41;;;;;;;;;;;;;;;-142.41;100.00;64449.00;5135207;27;20010;-69
2023/02/19 06:43:07;;;;;;;;;;;;;;;-142.41;100.00;64449.00;5134645;27;20407;-69
2023/02/19 06:45:33;;;;;;;;;;;;;;;-142.41;100.00;64449.00;5134132;27;19911;-69
2023/02/19 06:47:59;;;;;;;;;;;;;;;-142.41;100.00;64449.00;5133834;27;19916;-70
2023/02/19 06:50:27;;;;;;;;;;;;;;;-142.41;100.00;64449.00;5131759;27;20359;-75
2023/02/19 06:52:53;;;;;;;;;;;;;;;-142.41;100.00;64449.00;5131056;27;19912;-76
2023/02/19 06:55:18;;;;;;;;;;;;;;;-142.41;100.00;64449.00;5131980;27;20346;-71
2023/02/19 06:57:43;;;;;;;;;;;;;;;-142.41;100.00;64449.00;5133347;27;19911;-74
2023/02/19 07:00:29;;;;;;;;;;;;;;;-142.41;100.00;64449.00;5133658;27;19916;-75
2023/02/19 07:03:09;;;;;;;;;;;;;;;-142.41;100.00;64449.00;5084085;27;19958;-65
2023/02/19 07:05:34;;;;;;;;;;;;;;;-142.41;100.00;64449.00;5133709;27;19973;-68
2023/02/19 07:08:00;;;;;;;;;;;;;;;-142.41;100.00;64449.00;5133266;27;19912;-67
2023/02/19 07:10:25;;;;;;;;;;;;;;;-142.41;100.00;64449.00;5133434;27;19912;-69
2023/02/19 07:12:50;;;;;;;;;;;;;;;-142.41;100.00;64449.00;5133464;27;20307;-71
2023/02/19 07:15:16;;;;;;;;;;;;;;;-142.41;100.00;64449.00;5132599;27;19911;-70
2023/02/19 07:17:41;;;;;;;;;;;;;;;-142.41;100.00;64449.00;5115512;27;19911;-68
2023/02/19 07:20:06;;;;;;;;;;;;;;;-142.41;100.00;64449.00;5133602;27;19954;-67
2023/02/19 07:22:32;;;;;;;;;;;;;;;-142.41;100.00;64449.00;5133806;27;19934;-68
2023/02/19 07:24:57;;;;;;;;;;;;;;;-142.41;100.00;64449.00;5134391;28;19959;-67
2023/02/19 07:27:23;;;;;;;;;;;;;;;-142.41;100.00;64449.00;5133937;28;20266;-70
2023/02/19 07:29:49;;;;;;;;;;;;;;;-142.41;100.00;64449.00;5133201;28;19926;-66
2023/02/19 07:32:14;;;;;;;;;;;;;;;-142.41;100.00;64449.00;5133268;28;19911;-68
2023/02/19 07:34:39;;;;;;;;;;;;;;;-142.41;100.00;64449.00;5133230;28;19962;-64
2023/02/19 07:37:05;;;;;;;;;;;;;;;-142.41;100.00;64449.00;5133212;28;19918;-68
2023/02/19 07:39:30;;;;;;;;;;;;;;;-142.41;100.00;64449.00;5133027;28;19919;-68
2023/02/19 07:41:56;;;;;;;;;;;;;;;-142.41;100.00;64449.00;5133447;28;19918;-66
2023/02/19 07:44:21;;;;;;;;;;;;;;;-142.41;100.00;64449.00;5133211;28;19988;-70
2023/02/19 07:46:46;;;;;;;;;;;;;;;-142.41;100.00;64449.00;5132963;28;20280;-70
2023/02/19 07:49:13;;;;;;;;;;;;;;;-142.41;100.00;64449.00;5132956;28;19922;-69
2023/02/19 07:51:38;;;;;;;;;;;;;;;-142.41;100.00;64449.00;5133027;28;19911;-68
2023/02/19 07:54:04;;;;;;;;;;;;;;;-142.41;100.00;64449.00;5131204;28;19956;-70
2023/02/19 07:56:30;;;;;;;;;;;;;;;-142.41;100.00;64449.00;5132819;28;19915;-74
2023/02/19 07:58:55;;;;;;;;;;;;;;;-142.41;100.00;64449.00;5133643;28;19912;-73
2023/02/19 08:04:06;;;;;;;;;;;;;;;-142.41;100.00;64449.00;5134952;27;19918;-71
2023/02/19 08:06:31;;;;;;;;;;;;;;;-142.41;100.00;64449.00;5136930;27;19912;-68
2023/02/19 08:09:02;;;;;;;;;;;;;;;-142.41;100.00;64449.00;5133182;27;19958;-67
2023/02/19 08:14:13;;;;;;;;;;;;;;;-142.41;100.00;64449.00;5136899;27;20018;-70
2023/02/19 08:16:38;;;;;;;;;;;;;;;-142.41;100.00;64449.00;5136649;27;19947;-71
2023/02/19 08:19:04;;;;;;;;;;;;;;;-142.41;100.00;64449.00;5117994;27;19911;-70
2023/02/19 08:21:29;;;;;;;;;;;;;;;-142.41;100.00;64449.00;5136610;27;19915;-71
2023/02/19 08:23:54;;;;;;;;;;;;;;;-142.41;100.00;64449.00;5136972;27;19919;-70
2023/02/19 08:26:20;;;;;;;;;;;;;;;-142.41;100.00;64449.00;5136786;27;20247;-69
2023/02/19 08:28:48;;;;;;;;;;;;;;;-142.41;100.00;64449.00;5135766;27;19916;-75
2023/02/19 08:31:14;;;;;;;;;;;;;;;-142.41;100.00;64449.00;5117350;27;19915;-71
2023/02/19 08:33:40;;;;;;;;;;;;;;;-142.41;100.00;64449.00;5100700;27;19964;-70
2023/02/19 08:36:06;;;;;;;;;;;;;;;-142.41;100.00;64449.00;5137198;27;19992;-74
2023/02/19 08:38:33;;;;;;;;;;;;;;;-142.41;100.00;64449.00;5137629;27;19965;-69
2023/02/19 08:40:59;;;;;;;;;;;;;;;-142.41;100.00;64449.00;5137883;27;19916;-72
2023/02/19 08:43:24;;;;;;;;;;;;;;;-142.41;100.00;64449.00;5119576;27;19919;-74
2023/02/19 08:45:51;;;;;;;;;;;;;;;-142.41;100.00;64449.00;5137159;27;19911;-67
2023/02/19 08:48:16;;;;;;;;;;;;;;;-142.41;100.00;64449.00;5135943;27;20370;-69
2023/02/19 08:50:43;;;;;;;;;;;;;;;-142.41;100.00;64449.00;5117787;27;20324;-70
2023/02/19 08:53:08;;;;;;;;;;;;;;;-142.41;100.00;64449.00;5136132;27;19916;-65
2023/02/19 08:55:35;;;;;;;;;;;;;;;-142.41;100.00;64449.00;5135625;27;19912;-65
2023/02/19 08:58:01;;;;;;;;;;;;;;;-142.41;100.00;64449.00;5135719;27;19918;-68
2023/02/19 09:00:26;;;;;;;;;;;;;;;-142.41;100.00;64449.00;5118387;27;19911;-63
2023/02/19 09:02:51;;;;;;;;;;;;;;;-142.41;100.00;64449.00;5135579;27;20001;-64
2023/02/19 09:05:17;;;;;;;;;;;;;;;-142.41;100.00;64449.00;5135672;27;19962;-66
2023/02/19 09:07:42;;;;;;;;;;;;;;;-142.41;100.00;64449.00;5135400;27;19911;-67
2023/02/19 09:10:12;;;;;;;;;;;;;;;-142.41;100.00;64449.00;5135525;27;20018;-69
2023/02/19 09:12:39;;;;;;;;;;;;;;;-142.41;100.00;64449.00;5135269;27;19989;-68
2023/02/19 09:15:05;;;;;;;;;;;;;;;-142.41;100.00;64449.00;5128660;27;19956;-67
2023/02/19 09:17:30;;;;;;;;;;;;;;;-142.41;100.00;64449.00;5126429;27;20040;-71
2023/02/19 09:19:56;;;;;;;;;;;;;;;-142.41;100.00;64449.00;5139821;27;20316;-70
2023/02/19 09:22:21;;;;;;;;;;;;;;;-142.41;100.00;64449.00;5110793;27;19962;-67
2023/02/19 09:24:46;;;;;;;;;;;;;;;-142.41;100.00;64449.00;5121865;27;19912;-67
2023/02/19 09:27:16;;;;;;;;;;;;;;;-142.41;100.00;64449.00;5099661;28;20450;-71
2023/02/19 09:29:42;;;;;;;;;;;;;;;-142.41;100.00;64449.00;5099514;28;19939;-76
2023/02/19 09:32:08;;;;;;;;;;;;;;;-142.41;100.00;64449.00;5104455;28;20355;-73
2023/02/19 09:34:33;;;;;;;;;;;;;;;-142.41;100.00;64449.00;5103314;28;20031;-70
2023/02/19 09:36:59;;;;;;;;;;;;;;;-142.41;100.00;64449.00;5103094;28;19934;-72
2023/02/19 09:39:24;;;;;;;;;;;;;;;-142.41;100.00;64449.00;5105679;28;20371;-73
2023/02/19 09:41:51;;;;;;;;;;;;;;;-142.41;100.00;64449.00;5103115;28;19963;-70
2023/02/19 09:44:22;;;;;;;;;;;;;;;-142.41;100.00;64449.00;5100326;28;19912;-71
2023/02/19 09:46:50;;;;;;;;;;;;;;;-142.41;100.00;64449.00;5107074;28;19912;-68
2023/02/19 09:49:30;;;;;;;;;;;;;;;-142.41;100.00;64449.00;5107014;28;19918;-68
2023/02/19 09:52:24;;;;;;;;;;;;;;;-142.41;100.00;64449.00;5114214;28;19923;-68
2023/02/19 09:54:50;;;;;;;;;;;;;;;-142.41;100.00;64449.00;5114043;28;20286;-68
2023/02/19 09:57:17;;;;;;;;;;;;;;;-142.41;100.00;64449.00;5113626;28;19913;-70
2023/02/19 09:59:59;;;;;;;;;;;;;;;-142.41;100.00;64449.00;5113487;28;20279;-70
2023/02/19 10:02:25;;;;;;;;;;;;;;;-142.41;100.00;64449.00;5112641;28;19918;-70
2023/02/19 10:04:51;;;;;;;;;;;;;;;-142.41;100.00;64449.00;5113710;28;19962;-70
2023/02/19 10:07:22;;;;;;;;;;;;;;;-142.41;100.00;64449.00;5113486;28;19945;-70
2023/02/19 10:09:51;;;;;;;;;;;;;;;-142.41;100.00;64449.00;5101913;28;19919;-67
2023/02/19 10:12:23;;;;;;;;;;;;;;;-142.41;100.00;64449.00;5093230;28;19922;-69
2023/02/19 10:14:52;;;;;;;;;;;;;;;-142.41;100.00;64449.00;5093325;28;19916;-74
2023/02/19 10:17:25;;;;;;;;;;;;;;;-142.41;100.00;64449.00;5093160;28;19999;-68
2023/02/19 10:19:51;;;;;;;;;;;;;;;-142.41;100.00;64449.00;5093130;28;19919;-69
2023/02/19 10:22:17;;;;;;;;;;;;;;;-142.41;100.00;64449.00;5092234;28;19912;-71
2023/02/19 10:24:43;;;;;;;;;;;;;;;-142.41;100.00;64449.00;5092988;28;19958;-68
2023/02/19 10:27:12;;;;;;;;;;;;;;;-142.41;100.00;64449.00;5091142;28;19927;-68
2023/02/19 10:29:41;;;;;;;;;;;;;;;-142.41;100.00;64449.00;5092975;28;19916;-69
2023/02/19 10:32:19;;;;;;;;;;;;;;;-142.41;100.00;64449.00;5092974;28;19963;-67
2023/02/19 10:34:45;;;;;;;;;;;;;;;-142.41;100.00;64449.00;5093050;28;19957;-68
2023/02/19 10:37:15;;;;;;;;;;;;;;;-142.41;100.00;64449.00;5092354;28;20375;-72
2023/02/19 10:39:48;;;;;;;;;;;;;;;-142.41;100.00;64449.00;5093145;28;20420;-68
2023/02/19 10:42:18;;;;;;;;;;;;;;;-142.41;100.00;64449.00;5093118;28;19919;-68
2023/02/19 10:44:46;;;;;;;;;;;;;;;-142.41;100.00;64449.00;5092815;28;19919;-66
2023/02/19 10:47:16;;;;;;;;;;;;;;;-142.41;100.00;64449.00;5092784;28;19912;-68
2023/02/19 10:49:43;;;;;;;;;;;;;;;-142.41;100.00;64449.00;5093707;28;19926;-68
2023/02/19 10:52:19;;;;;;;;;;;;;;;-142.41;100.00;64449.00;5093387;28;20049;-70
2023/02/19 10:55:24;;;;;;;;;;;;;;;-142.41;100.00;64449.00;5093067;28;19978;-68
2023/02/19 10:57:49;;;;;;;;;;;;;;;-142.41;100.00;64449.00;5092999;28;19916;-69
2023/02/19 11:00:15;;;;;;;;;;;;;;;-142.41;100.00;64449.00;5093262;28;20021;-68
2023/02/19 11:02:41;;;;;;;;;;;;;;;-142.41;100.00;64449.00;5092041;28;19935;-68
2023/02/19 11:05:15;;;;;;;;;;;;;;;-142.41;100.00;64449.00;5092340;28;19919;-72
2023/02/19 11:07:55;;;;;;;;;;;;;;;-142.41;100.00;64449.00;5090977;28;20283;-67
2023/02/19 11:10:20;;;;;;;;;;;;;;;-142.41;100.00;64449.00;5091227;28;20363;-67
2023/02/19 11:12:47;;;;;;;;;;;;;;;-142.41;100.00;64449.00;5091408;28;19965;-70
2023/02/19 11:15:30;;;;;;;;;;;;;;;-142.41;100.00;64449.00;5092458;28;19912;-78
2023/02/19 11:18:13;;;;;;;;;;;;;;;-142.41;100.00;64449.00;5092281;28;19912;-73
2023/02/19 11:20:59;;;;;;;;;;;;;;;-142.41;100.00;64449.00;5074380;28;20439;-73
2023/02/19 11:23:30;;;;;;;;;;;;;;;-142.41;100.00;64449.00;5091621;28;20000;-65
2023/02/19 11:25:57;;;;;;;;;;;;;;;-142.41;100.00;64449.00;5092000;28;19912;-67
2023/02/19 11:28:36;;;;;;;;;;;;;;;-142.41;100.00;64449.00;5108131;28;19915;-67
2023/02/19 11:31:20;;;;;;;;;;;;;;;-142.41;100.00;64449.00;5112565;28;19915;-68
2023/02/19 11:33:55;;;;;;;;;;;;;;;-142.41;100.00;64449.00;5114544;28;19918;-71
2023/02/19 11:36:29;;;;;;;;;;;;;;;-142.41;100.00;64449.00;5112644;28;19934;-71
2023/02/19 11:38:56;;;;;;;;;;;;;;;-142.41;100.00;64449.00;5113825;28;19911;-71
2023/02/19 11:41:40;;;;;;;;;;;;;;;-142.41;100.00;64449.00;5116414;28;20060;-68
2023/02/19 11:44:05;;;;;;;;;;;;;;;-142.41;100.00;64449.00;5116648;28;19922;-68
2023/02/19 11:46:40;;;;;;;;;;;;;;;-142.41;100.00;64449.00;5116615;28;20006;-69
2023/02/19 11:49:24;;;;;;;;;;;;;;;-142.41;100.00;64449.00;5117448;28;19918;-70
2023/02/19 11:51:49;;;;;;;;;;;;;;;-142.41;100.00;64449.00;5117550;28;19919;-71
2023/02/19 11:54:33;;;;;;;;;;;;;;;-142.41;100.00;64449.00;5116397;28;19912;-69
2023/02/19 11:57:18;;;;;;;;;;;;;;;-142.41;100.00;64449.00;5116518;28;19915;-66
2023/02/19 11:59:49;;;;;;;;;;;;;;;-142.41;100.00;64449.00;5116178;28;19916;-70
2023/02/19 12:02:14;;;;;;;;;;;;;;;-142.41;100.00;64449.00;5116401;28;19919;-67
2023/02/19 12:05:04;;;;;;;;;;;;;;;-142.41;100.00;64449.00;5116395;28;19912;-72
2023/02/19 12:07:32;;;;;;;;;;;;;;;-142.41;100.00;64449.00;5116535;28;19920;-68
2023/02/19 12:10:08;;;;;;;;;;;;;;;-142.41;100.00;64449.00;5118784;27;20283;-68
2023/02/19 12:12:36;;;;;;;;;;;;;;;-142.41;100.00;64449.00;5117015;28;19916;-67
2023/02/19 12:15:01;;;;;;;;;;;;;;;-142.41;100.00;64449.00;5099287;28;19918;-72
2023/02/19 12:17:42;;;;;;;;;;;;;;;-142.41;100.00;64449.00;5116091;28;19999;-73
2023/02/19 12:20:10;;;;;;;;;;;;;;;-142.41;100.00;64449.00;5116333;28;20018;-67
2023/02/19 12:22:41;;;;;;;;;;;;;;;-142.41;100.00;64449.00;5116033;28;20354;-68
2023/02/19 12:25:22;;;;;;;;;;;;;;;-142.41;100.00;64449.00;5115704;28;20381;-67
2023/02/19 12:28:01;;;;;;;;;;;;;;;-142.41;100.00;64449.00;5115595;28;19922;-70
2023/02/19 12:30:45;;;;;;;;;;;;;;;-142.41;100.00;64449.00;5115942;28;20345;-67
2023/02/19 12:33:10;;;;;;;;;;;;;;;-142.41;100.00;64449.00;5119125;27;19918;-67
2023/02/19 12:35:43;;;;;;;;;;;;;;;-142.41;100.00;64449.00;5124695;27;19952;-70
2023/02/19 12:38:12;;;;;;;;;;;;;;;-142.41;100.00;64449.00;5115185;28;19934;-70
2023/02/19 12:40:38;;;;;;;;;;;;;;;-142.41;100.00;64449.00;5114404;28;19912;-66
2023/02/19 12:43:09;;;;;;;;;;;;;;;-142.41;100.00;64449.00;5115567;28;19955;-66
2023/02/19 12:45:41;;;;;;;;;;;;;;;-142.41;100.00;64449.00;5115404;28;20001;-67
2023/02/19 12:48:25;;;;;;;;;;;;;;;-142.41;100.00;64449.00;5114206;28;20010;-68
2023/02/19 12:50:55;;;;;;;;;;;;;;;-142.41;100.00;64449.00;5114686;28;19992;-65